Time,TemperatureF,DewpointF,PressureIn,WindDirection,WindDirectionDegrees,WindSpeedMPH,WindSpeedGustMPH,Humidity,HourlyPrecipIn,Conditions,Clouds,dailyrainin,SoftwareType,DateUTC
2013-02-26 00:00:00,29.9,21.0,30.06,SSW,211,0.0,0.0,69,0.00,,,0.00,Wunderground v.1.15,2013-02-26 05:00:00,
2013-02-26 00:10:00,29.9,21.0,30.05,SSW,211,0.0,0.0,69,0.00,,,0.00,Wunderground v.1.15,2013-02-26 05:10:00,
2013-02-26 00:20:00,29.9,21.0,30.04,SSW,211,0.0,0.0,69,0.00,,,0.00,Wunderground v.1.15,2013-02-26 05:20:00,
2013-02-26 00:30:00,29.9,21.0,30.05,SE,142,0.0,0.0,69,0.00,,,0.00,Wunderground v.1.15,2013-02-26 05:30:00,
2013-02-26 00:40:00,29.8,20.9,30.05,SE,142,0.0,0.0,69,0.00,,,0.00,Wunderground v.1.15,2013-02-26 05:40:00,
2013-02-26 00:50:00,29.7,20.8,30.05,SE,142,0.0,0.0,69,0.00,,,0.00,Wunderground v.1.15,2013-02-26 05:50:00,
2013-02-26 01:00:00,29.6,20.7,30.05,SE,142,0.0,0.0,69,0.00,,,0.00,Wunderground v.1.15,2013-02-26 06:00:00,
2013-02-26 01:10:00,29.5,20.6,30.04,SE,142,0.0,0.0,69,0.00,,,0.00,Wunderground v.1.15,2013-02-26 06:10:00,
2013-02-26 01:20:00,29.4,20.8,30.04,SE,142,0.0,0.0,70,0.00,,,0.00,Wunderground v.1.15,2013-02-26 06:20:00,
2013-02-26 01:30:00,29.4,20.8,30.04,SE,142,0.0,0.0,70,0.00,,,0.00,Wunderground v.1.15,2013-02-26 06:30:00,
2013-02-26 01:40:00,29.4,21.2,30.03,SE,142,0.0,0.0,71,0.00,,,0.00,Wunderground v.1.15,2013-02-26 06:40:00,
2013-02-26 01:50:00,29.5,21.3,30.03,SE,142,0.0,0.0,71,0.00,,,0.00,Wunderground v.1.15,2013-02-26 06:50:00,
2013-02-26 02:00:00,29.7,21.4,30.02,SE,130,0.0,0.0,71,0.00,,,0.00,Wunderground v.1.15,2013-02-26 07:00:00,
2013-02-26 02:10:00,29.7,21.1,30.02,SE,131,0.0,0.0,70,0.00,,,0.00,Wunderground v.1.15,2013-02-26 07:10:00,
2013-02-26 02:20:00,29.8,21.2,30.01,SE,131,0.0,1.0,70,0.00,,,0.00,Wunderground v.1.15,2013-02-26 07:20:00,
2013-02-26 02:30:00,29.8,21.2,30.00,NE,55,0.0,0.0,70,0.00,,,0.00,Wunderground v.1.15,2013-02-26 07:30:00,
2013-02-26 02:40:00,29.9,21.3,30.00,NE,55,0.0,0.0,70,0.00,,,0.00,Wunderground v.1.15,2013-02-26 07:40:00,
2013-02-26 02:50:00,30.0,21.4,30.00,ENE,70,0.0,0.0,70,0.00,,,0.00,Wunderground v.1.15,2013-02-26 07:50:00,
2013-02-26 03:00:00,30.0,21.4,30.00,ENE,69,0.0,0.0,70,0.00,,,0.00,Wunderground v.1.15,2013-02-26 08:00:00,
2013-02-26 03:10:00,30.1,21.5,29.99,ENE,70,0.0,0.0,70,0.00,,,0.00,Wunderground v.1.15,2013-02-26 08:10:00,
2013-02-26 03:20:00,30.1,21.5,29.98,ENE,70,0.0,2.0,70,0.00,,,0.00,Wunderground v.1.15,2013-02-26 08:20:00,
2013-02-26 03:30:00,30.1,21.5,29.98,East,82,1.0,1.0,70,0.00,,,0.00,Wunderground v.1.15,2013-02-26 08:30:00,
2013-02-26 03:40:00,30.1,21.2,29.98,ENE,69,0.0,0.0,69,0.00,,,0.00,Wunderground v.1.15,2013-02-26 08:40:00,
2013-02-26 03:50:00,30.2,21.6,29.99,ENE,58,0.0,2.0,70,0.00,,,0.00,Wunderground v.1.15,2013-02-26 08:50:00,
2013-02-26 04:00:00,30.2,21.6,29.99,ENE,71,1.0,1.0,70,0.00,,,0.00,Wunderground v.1.15,2013-02-26 09:00:00,
2013-02-26 04:10:00,30.2,21.6,29.98,ENE,71,0.0,0.0,70,0.00,,,0.00,Wunderground v.1.15,2013-02-26 09:10:00,
2013-02-26 04:20:00,30.2,21.6,29.98,East,84,0.0,0.0,70,0.00,,,0.00,Wunderground v.1.15,2013-02-26 09:20:00,
2013-02-26 04:30:00,30.2,21.6,29.97,ENE,59,0.0,0.0,70,0.00,,,0.00,Wunderground v.1.15,2013-02-26 09:30:00,
2013-02-26 04:40:00,30.2,21.6,29.97,East,84,0.0,0.0,70,0.00,,,0.00,Wunderground v.1.15,2013-02-26 09:40:00,
2013-02-26 04:50:00,30.1,21.5,29.97,East,79,1.0,1.0,70,0.00,,,0.00,Wunderground v.1.15,2013-02-26 09:50:00,
2013-02-26 05:00:00,30.1,21.5,29.97,SSE,150,0.0,1.0,70,0.00,,,0.00,Wunderground v.1.15,2013-02-26 10:00:00,
2013-02-26 05:10:00,30.1,21.5,29.98,SSE,148,0.0,0.0,70,0.00,,,0.00,Wunderground v.1.15,2013-02-26 10:10:00,
2013-02-26 05:20:00,30.2,21.6,29.99,SSE,157,1.0,1.0,70,0.00,,,0.00,Wunderground v.1.15,2013-02-26 10:20:00,
2013-02-26 05:30:00,30.2,21.6,29.98,East,80,1.0,1.0,70,0.00,,,0.00,Wunderground v.1.15,2013-02-26 10:30:00,
2013-02-26 05:40:00,30.2,21.6,29.97,SE,125,1.0,1.0,70,0.00,,,0.00,Wunderground v.1.15,2013-02-26 10:40:00,
2013-02-26 05:50:00,30.2,21.6,29.97,NW,317,0.0,2.0,70,0.00,,,0.00,Wunderground v.1.15,2013-02-26 10:50:00,
2013-02-26 06:00:00,30.2,21.6,29.98,SSE,162,1.0,1.0,70,0.00,,,0.00,Wunderground v.1.15,2013-02-26 11:00:00,
2013-02-26 06:10:00,30.1,21.5,29.98,ESE,114,1.0,1.0,70,0.00,,,0.00,Wunderground v.1.15,2013-02-26 11:10:00,
2013-02-26 06:20:00,30.1,21.5,29.96,ENE,78,0.0,1.0,70,0.00,,,0.00,Wunderground v.1.15,2013-02-26 11:20:00,
2013-02-26 06:30:00,30.1,21.8,29.95,ESE,110,1.0,1.0,71,0.00,,,0.00,Wunderground v.1.15,2013-02-26 11:30:00,
2013-02-26 06:40:00,30.0,21.7,29.95,NNE,33,0.0,0.0,71,0.00,,,0.00,Wunderground v.1.15,2013-02-26 11:40:00,
2013-02-26 06:50:00,29.9,21.6,29.95,NNW,346,1.0,1.0,71,0.00,,,0.00,Wunderground v.1.15,2013-02-26 11:50:00,
2013-02-26 07:00:00,29.9,22.0,29.94,NE,49,0.0,1.0,72,0.00,,,0.00,Wunderground v.1.15,2013-02-26 12:00:00,
2013-02-26 07:10:00,29.7,22.1,29.94,ENE,59,1.0,1.0,73,0.00,,,0.00,Wunderground v.1.15,2013-02-26 12:10:00,
2013-02-26 07:20:00,29.6,22.0,29.94,ENE,72,1.0,1.0,73,0.00,,,0.00,Wunderground v.1.15,2013-02-26 12:20:00,
2013-02-26 07:30:00,29.5,22.2,29.94,ENE,75,2.0,2.0,74,0.00,,,0.00,Wunderground v.1.15,2013-02-26 12:30:00,
2013-02-26 07:40:00,29.4,22.5,29.95,SE,125,1.0,2.0,75,0.00,,,0.00,Wunderground v.1.15,2013-02-26 12:40:00,
2013-02-26 07:50:00,29.3,22.7,29.94,South,176,1.0,5.0,76,0.00,,,0.00,Wunderground v.1.15,2013-02-26 12:50:00,
2013-02-26 08:00:00,29.2,23.2,29.94,ENE,60,1.0,1.0,78,0.00,,,0.00,Wunderground v.1.15,2013-02-26 13:00:00,
2013-02-26 08:10:00,29.1,24.0,29.94,East,84,1.0,1.0,81,0.00,,,0.00,Wunderground v.1.15,2013-02-26 13:10:00,
2013-02-26 08:20:00,29.1,24.9,29.93,NNE,22,1.0,1.0,84,0.00,,,0.00,Wunderground v.1.15,2013-02-26 13:20:00,
2013-02-26 08:30:00,29.0,25.1,29.93,East,88,1.0,1.0,85,0.00,,,0.00,Wunderground v.1.15,2013-02-26 13:30:00,
2013-02-26 08:40:00,29.0,25.6,29.92,ENE,61,1.0,4.0,87,0.00,,,0.00,Wunderground v.1.15,2013-02-26 13:40:00,
2013-02-26 08:50:00,28.9,25.5,29.91,ENE,71,1.0,1.0,87,0.00,,,0.00,Wunderground v.1.15,2013-02-26 13:50:00,
2013-02-26 09:00:00,28.9,25.8,29.90,ENE,72,1.0,4.0,88,0.00,,,0.00,Wunderground v.1.15,2013-02-26 14:00:00,
2013-02-26 09:10:00,28.8,26.0,29.90,ENE,61,2.0,2.0,89,0.00,,,0.00,Wunderground v.1.15,2013-02-26 14:10:00,
2013-02-26 09:20:00,28.9,26.1,29.89,NE,51,1.0,1.0,89,0.00,,,0.00,Wunderground v.1.15,2013-02-26 14:20:00,
2013-02-26 09:30:00,29.3,26.7,29.89,ENE,59,1.0,1.0,90,0.00,,,0.00,Wunderground v.1.15,2013-02-26 14:30:00,
2013-02-26 09:40:00,29.7,27.1,29.88,North,5,2.0,3.0,90,0.00,,,0.00,Wunderground v.1.15,2013-02-26 14:40:00,
2013-02-26 09:50:00,29.9,27.6,29.87,ENE,62,1.0,1.0,91,0.00,,,0.00,Wunderground v.1.15,2013-02-26 14:50:00,
2013-02-26 10:00:00,30.1,27.8,29.86,ENE,65,1.0,1.0,91,0.00,,,0.01,Wunderground v.1.15,2013-02-26 15:00:00,
2013-02-26 10:10:00,30.1,27.8,29.85,NE,52,1.0,1.0,91,0.00,,,0.01,Wunderground v.1.15,2013-02-26 15:10:00,
2013-02-26 10:20:00,30.3,28.3,29.85,East,92,1.0,2.0,92,0.00,,,0.01,Wunderground v.1.15,2013-02-26 15:20:00,
2013-02-26 10:30:00,30.5,28.5,29.85,NE,42,1.0,1.0,92,0.00,,,0.01,Wunderground v.1.15,2013-02-26 15:30:00,
2013-02-26 10:40:00,30.8,29.0,29.83,ENE,73,1.0,1.0,93,0.00,,,0.01,Wunderground v.1.15,2013-02-26 15:40:00,
2013-02-26 10:50:00,31.0,29.2,29.82,ENE,68,1.0,2.0,93,0.00,,,0.01,Wunderground v.1.15,2013-02-26 15:50:00,
2013-02-26 11:00:00,31.4,29.6,29.80,NE,44,1.0,3.0,93,0.00,,,0.01,Wunderground v.1.15,2013-02-26 16:00:00,
2013-02-26 11:10:00,32.0,30.5,29.79,ENE,65,1.0,1.0,94,0.00,,,0.01,Wunderground v.1.15,2013-02-26 16:10:00,
2013-02-26 11:20:00,32.5,31.0,29.78,ESE,105,1.0,2.0,94,0.00,,,0.01,Wunderground v.1.15,2013-02-26 16:20:00,
2013-02-26 11:30:00,32.8,31.3,29.78,East,101,2.0,2.0,94,0.00,,,0.01,Wunderground v.1.15,2013-02-26 16:30:00,
2013-02-26 11:40:00,32.9,31.4,29.76,East,87,2.0,3.0,94,0.00,,,0.01,Wunderground v.1.15,2013-02-26 16:40:00,
2013-02-26 11:50:00,32.7,31.2,29.75,ENE,74,2.0,2.0,94,0.00,,,0.01,Wunderground v.1.15,2013-02-26 16:50:00,
2013-02-26 12:00:00,32.8,31.3,29.75,ENE,69,1.0,1.0,94,0.00,,,0.01,Wunderground v.1.15,2013-02-26 17:00:00,
2013-02-26 12:10:00,32.9,31.6,29.74,ENE,70,1.0,1.0,95,0.00,,,0.01,Wunderground v.1.15,2013-02-26 17:10:00,
2013-02-26 12:20:00,33.2,31.9,29.73,NE,51,2.0,3.0,95,0.00,,,0.02,Wunderground v.1.15,2013-02-26 17:20:00,
2013-02-26 12:30:00,33.4,32.1,29.72,ENE,76,2.0,2.0,95,0.07,,,0.03,Wunderground v.1.15,2013-02-26 17:30:00,
2013-02-26 12:40:00,33.9,32.6,29.71,ENE,64,2.0,3.0,95,0.04,,,0.04,Wunderground v.1.15,2013-02-26 17:40:00,
2013-02-26 12:50:00,34.4,33.1,29.71,East,96,2.0,2.0,95,0.06,,,0.05,Wunderground v.1.15,2013-02-26 17:50:00,
2013-02-26 13:00:00,34.4,33.1,29.70,ENE,68,2.0,2.0,95,0.12,,,0.07,Wunderground v.1.15,2013-02-26 18:00:00,
2013-02-26 13:10:00,34.4,33.1,29.69,NNE,13,1.0,3.0,95,0.04,,,0.07,Wunderground v.1.15,2013-02-26 18:10:00,
2013-02-26 13:20:00,34.8,33.8,29.68,ENE,78,1.0,1.0,96,0.00,,,0.07,Wunderground v.1.15,2013-02-26 18:20:00,
2013-02-26 13:30:00,35.4,34.4,29.67,South,191,2.0,2.0,96,0.00,,,0.08,Wunderground v.1.15,2013-02-26 18:30:00,
2013-02-26 13:40:00,35.4,34.4,29.67,NNE,26,2.0,2.0,96,0.00,,,0.08,Wunderground v.1.15,2013-02-26 18:40:00,
2013-02-26 13:50:00,35.7,34.7,29.65,NE,49,2.0,2.0,96,0.00,,,0.08,Wunderground v.1.15,2013-02-26 18:50:00,
2013-02-26 14:00:00,35.9,34.9,29.64,NNE,26,2.0,2.0,96,0.00,,,0.08,Wunderground v.1.15,2013-02-26 19:00:00,
2013-02-26 14:10:00,35.7,34.7,29.63,ESE,114,1.0,1.0,96,0.00,,,0.09,Wunderground v.1.15,2013-02-26 19:10:00,
2013-02-26 14:20:00,35.5,34.5,29.62,ENE,76,2.0,2.0,96,0.00,,,0.09,Wunderground v.1.15,2013-02-26 19:20:00,
2013-02-26 14:30:00,35.5,34.5,29.61,NE,44,1.0,1.0,96,0.00,,,0.10,Wunderground v.1.15,2013-02-26 19:30:00,
2013-02-26 14:40:00,35.6,34.6,29.60,NE,46,2.0,3.0,96,0.06,,,0.11,Wunderground v.1.15,2013-02-26 19:40:00,
2013-02-26 14:50:00,35.6,34.6,29.58,NE,46,2.0,2.0,96,0.00,,,0.11,Wunderground v.1.15,2013-02-26 19:50:00,
2013-02-26 15:00:00,35.4,34.4,29.58,NE,45,2.0,2.0,96,0.00,,,0.12,Wunderground v.1.15,2013-02-26 20:00:00,
2013-02-26 15:10:00,35.5,34.5,29.57,ESE,107,2.0,2.0,96,0.00,,,0.12,Wunderground v.1.15,2013-02-26 20:10:00,
2013-02-26 15:20:00,35.4,34.4,29.57,ENE,60,3.0,3.0,96,0.00,,,0.13,Wunderground v.1.15,2013-02-26 20:20:00,
2013-02-26 15:30:00,35.3,34.3,29.55,NE,54,1.0,5.0,96,0.08,,,0.15,Wunderground v.1.15,2013-02-26 20:30:00,
2013-02-26 15:40:00,35.6,34.6,29.56,NE,47,1.0,1.0,96,0.43,,,0.17,Wunderground v.1.15,2013-02-26 20:40:00,
2013-02-26 15:50:00,35.9,34.9,29.56,ESE,113,1.0,1.0,96,0.05,,,0.17,Wunderground v.1.15,2013-02-26 20:50:00,
2013-02-26 16:00:00,35.9,34.9,29.58,NNE,17,1.0,1.0,96,0.04,,,0.18,Wunderground v.1.15,2013-02-26 21:00:00,
2013-02-26 16:10:00,35.9,34.9,29.58,West,267,0.0,0.0,96,0.11,,,0.20,Wunderground v.1.15,2013-02-26 21:10:00,
2013-02-26 16:20:00,35.9,34.9,29.58,ENE,64,1.0,2.0,96,0.09,,,0.22,Wunderground v.1.15,2013-02-26 21:20:00,
2013-02-26 16:30:00,35.9,34.9,29.58,NE,44,1.0,1.0,96,0.06,,,0.22,Wunderground v.1.15,2013-02-26 21:30:00,
2013-02-26 16:40:00,35.9,34.9,29.57,SSE,161,1.0,1.0,96,0.12,,,0.24,Wunderground v.1.15,2013-02-26 21:40:00,
2013-02-26 16:50:00,35.9,34.9,29.58,ENE,68,1.0,1.0,96,0.06,,,0.24,Wunderground v.1.15,2013-02-26 21:50:00,
2013-02-26 17:00:00,36.0,35.0,29.56,East,84,0.0,0.0,96,0.00,,,0.24,Wunderground v.1.15,2013-02-26 22:00:00,
2013-02-26 17:10:00,35.9,34.9,29.55,ENE,75,1.0,1.0,96,0.00,,,0.24,Wunderground v.1.15,2013-02-26 22:10:00,
2013-02-26 17:20:00,35.9,34.9,29.56,NW,304,1.0,1.0,96,0.00,,,0.24,Wunderground v.1.15,2013-02-26 22:20:00,
2013-02-26 17:30:00,36.0,35.2,29.55,ENE,57,1.0,1.0,97,0.00,,,0.24,Wunderground v.1.15,2013-02-26 22:30:00,
2013-02-26 17:40:00,36.1,35.3,29.55,NE,44,1.0,5.0,97,0.00,,,0.24,Wunderground v.1.15,2013-02-26 22:40:00,
2013-02-26 17:50:00,36.2,35.4,29.54,ENE,75,2.0,3.0,97,0.00,,,0.24,Wunderground v.1.15,2013-02-26 22:50:00,
2013-02-26 18:00:00,36.3,35.5,29.55,NE,44,1.0,1.0,97,0.00,,,0.24,Wunderground v.1.15,2013-02-26 23:00:00,
2013-02-26 18:10:00,36.4,35.6,29.54,ENE,62,1.0,1.0,97,0.00,,,0.24,Wunderground v.1.15,2013-02-26 23:10:00,
2013-02-26 18:20:00,36.5,35.7,29.54,ENE,65,1.0,1.0,97,0.00,,,0.24,Wunderground v.1.15,2013-02-26 23:20:00,
2013-02-26 18:30:00,36.6,35.8,29.54,ESE,103,1.0,1.0,97,0.00,,,0.24,Wunderground v.1.15,2013-02-26 23:30:00,
2013-02-26 18:40:00,36.7,35.9,29.55,ENE,57,1.0,3.0,97,0.00,,,0.24,Wunderground v.1.15,2013-02-26 23:40:00,
2013-02-26 18:50:00,36.8,36.0,29.56,ENE,75,1.0,1.0,97,0.00,,,0.24,Wunderground v.1.15,2013-02-26 23:50:00,
2013-02-26 19:00:00,36.7,35.9,29.55,ENE,75,1.0,1.0,97,0.00,,,0.24,Wunderground v.1.15,2013-02-27 00:00:00,
2013-02-26 19:10:00,36.8,36.0,29.53,NE,44,1.0,1.0,97,0.00,,,0.24,Wunderground v.1.15,2013-02-27 00:10:00,
2013-02-26 19:20:00,36.9,36.1,29.54,NE,42,1.0,1.0,97,0.00,,,0.24,Wunderground v.1.15,2013-02-27 00:20:00,
2013-02-26 19:30:00,36.9,36.1,29.54,North,9,0.0,0.0,97,0.00,,,0.24,Wunderground v.1.15,2013-02-27 00:30:00,
2013-02-26 19:40:00,37.0,36.2,29.55,North,5,1.0,1.0,97,0.00,,,0.24,Wunderground v.1.15,2013-02-27 00:40:00,
2013-02-26 19:50:00,36.7,35.9,29.56,NNE,26,1.0,5.0,97,0.00,,,0.24,Wunderground v.1.15,2013-02-27 00:50:00,
2013-02-26 20:00:00,36.1,35.3,29.56,NE,42,2.0,2.0,97,0.00,,,0.24,Wunderground v.1.15,2013-02-27 01:00:00,
2013-02-26 20:10:00,36.1,35.3,29.56,NE,38,1.0,2.0,97,0.00,,,0.24,Wunderground v.1.15,2013-02-27 01:10:00,
2013-02-26 20:20:00,36.1,35.3,29.56,NE,38,1.0,1.0,97,0.00,,,0.24,Wunderground v.1.15,2013-02-27 01:20:00,
2013-02-26 20:30:00,36.1,35.3,29.55,NE,38,0.0,0.0,97,0.00,,,0.24,Wunderground v.1.15,2013-02-27 01:30:00,
2013-02-26 20:40:00,36.3,35.5,29.56,NE,38,0.0,1.0,97,0.00,,,0.24,Wunderground v.1.15,2013-02-27 01:40:00,
2013-02-26 20:50:00,36.4,35.9,29.56,NE,38,1.0,2.0,98,0.00,,,0.24,Wunderground v.1.15,2013-02-27 01:50:00,
2013-02-26 21:00:00,36.4,35.9,29.56,NE,37,0.0,0.0,98,0.00,,,0.24,Wunderground v.1.15,2013-02-27 02:00:00,
2013-02-26 21:10:00,36.3,35.5,29.56,NE,37,0.0,0.0,97,0.00,,,0.24,Wunderground v.1.15,2013-02-27 02:10:00,
2013-02-26 21:20:00,36.3,35.5,29.56,NE,38,0.0,0.0,97,0.00,,,0.24,Wunderground v.1.15,2013-02-27 02:20:00,
2013-02-26 21:30:00,36.2,35.4,29.56,NE,38,1.0,2.0,97,0.00,,,0.24,Wunderground v.1.15,2013-02-27 02:30:00,
2013-02-26 21:40:00,36.2,35.7,29.56,NE,38,0.0,0.0,98,0.00,,,0.24,Wunderground v.1.15,2013-02-27 02:40:00,
2013-02-26 21:50:00,36.3,35.8,29.55,NE,38,0.0,0.0,98,0.00,,,0.24,Wunderground v.1.15,2013-02-27 02:50:00,
2013-02-26 22:00:00,36.3,35.8,29.56,NE,38,0.0,0.0,98,0.00,,,0.24,Wunderground v.1.15,2013-02-27 03:00:00,
2013-02-26 22:10:00,36.2,35.7,29.56,NE,38,0.0,0.0,98,0.00,,,0.24,Wunderground v.1.15,2013-02-27 03:10:00,
2013-02-26 22:20:00,36.4,35.9,29.56,NE,37,0.0,0.0,98,0.00,,,0.24,Wunderground v.1.15,2013-02-27 03:20:00,
2013-02-26 22:30:00,36.5,36.0,29.56,NE,38,0.0,1.0,98,0.00,,,0.24,Wunderground v.1.15,2013-02-27 03:30:00,
2013-02-26 22:40:00,36.4,35.9,29.57,NE,38,0.0,0.0,98,0.00,,,0.24,Wunderground v.1.15,2013-02-27 03:40:00,
2013-02-26 22:50:00,36.3,35.8,29.56,NE,37,0.0,0.0,98,0.00,,,0.24,Wunderground v.1.15,2013-02-27 03:50:00,
2013-02-26 23:00:00,36.4,35.9,29.56,NE,38,0.0,0.0,98,0.00,,,0.24,Wunderground v.1.15,2013-02-27 04:00:00,
2013-02-26 23:10:00,36.5,36.0,29.55,NE,38,0.0,0.0,98,0.00,,,0.24,Wunderground v.1.15,2013-02-27 04:10:00,
2013-02-26 23:20:00,36.5,36.0,29.55,NE,38,0.0,0.0,98,0.00,,,0.24,Wunderground v.1.15,2013-02-27 04:20:00,
2013-02-26 23:30:00,36.6,36.1,29.54,NE,38,0.0,0.0,98,0.00,,,0.24,Wunderground v.1.15,2013-02-27 04:30:00,
2013-02-26 23:40:00,36.6,36.1,29.54,NE,37,0.0,0.0,98,0.00,,,0.24,Wunderground v.1.15,2013-02-27 04:40:00,
2013-02-26 23:50:00,36.6,36.1,29.54,NE,38,0.0,0.0,98,0.00,,,0.24,Wunderground v.1.15,2013-02-27 04:50:00,